createdAt,value
2023-04-16T00:01:22.096Z,8.15
2023-04-16T00:03:48.758Z,8.14
2023-04-16T00:06:15.384Z,8.19
2023-04-16T00:08:43.492Z,8.18
2023-04-16T00:11:09.879Z,8.19
2023-04-16T00:13:36.766Z,8.18
2023-04-16T00:16:03.198Z,8.16
2023-04-16T00:18:29.579Z,8.15
2023-04-16T00:20:56.086Z,8.15
2023-04-16T00:23:22.453Z,8.12
2023-04-16T00:25:48.902Z,8.13
2023-04-16T00:28:15.304Z,8.13
2023-04-16T00:30:41.706Z,8.12
2023-04-16T00:33:08.361Z,8.13
2023-04-16T00:35:34.970Z,8.13
2023-04-16T00:38:01.376Z,8.15
2023-04-16T00:40:29.105Z,8.15
2023-04-16T00:42:55.730Z,8.14
2023-04-16T00:45:22.176Z,8.11
2023-04-16T00:47:48.865Z,8.11
2023-04-16T00:50:15.831Z,8.12
2023-04-16T00:52:42.820Z,8.11
2023-04-16T00:55:13.364Z,8.09
2023-04-16T00:57:39.861Z,8.11
2023-04-16T01:00:07.009Z,8.12
2023-04-16T01:02:34.304Z,8.14
2023-04-16T01:05:02.117Z,8.15
2023-04-16T01:07:28.659Z,8.15
2023-04-16T01:09:55.277Z,8.12
2023-04-16T01:12:21.891Z,8.11
2023-04-16T01:14:48.587Z,8.10
2023-04-16T01:17:15.027Z,8.10
2023-04-16T01:19:42.552Z,8.13
2023-04-16T01:22:09.051Z,8.16
2023-04-16T01:24:36.377Z,8.16
2023-04-16T01:27:03.043Z,8.12
2023-04-16T01:29:29.512Z,8.13
2023-04-16T01:31:56.096Z,8.12
2023-04-16T01:34:22.571Z,8.15
2023-04-16T01:36:49.007Z,8.17
2023-04-16T01:39:16.328Z,8.19
2023-04-16T01:41:43.627Z,8.18
2023-04-16T01:44:10.212Z,8.19
2023-04-16T01:46:37.824Z,8.20
2023-04-16T01:49:05.502Z,8.18
2023-04-16T01:51:32.229Z,8.20
2023-04-16T01:53:58.975Z,8.21
2023-04-16T01:56:25.599Z,8.19
2023-04-16T01:58:52.992Z,8.21
2023-04-16T02:01:19.975Z,8.21
2023-04-16T02:03:47.187Z,8.20
2023-04-16T02:06:14.731Z,8.18
2023-04-16T02:08:41.714Z,8.21
2023-04-16T02:11:08.228Z,8.20
2023-04-16T02:13:34.763Z,8.21
2023-04-16T02:16:01.182Z,8.23
2023-04-16T02:18:27.909Z,8.21
2023-04-16T02:20:54.293Z,8.23
2023-04-16T02:23:20.823Z,8.22
2023-04-16T02:25:47.319Z,8.22
2023-04-16T02:28:16.364Z,8.23
2023-04-16T02:30:43.696Z,8.21
2023-04-16T02:33:11.664Z,8.25
2023-04-16T02:35:39.638Z,8.25
2023-04-16T02:38:06.738Z,8.26
2023-04-16T02:40:33.714Z,8.25
2023-04-16T02:43:00.469Z,8.28
2023-04-16T02:45:26.931Z,8.29
2023-04-16T02:47:53.344Z,8.29
2023-04-16T02:50:19.927Z,8.30
2023-04-16T02:52:46.332Z,8.29
2023-04-16T02:55:12.746Z,8.29
2023-04-16T02:57:39.180Z,8.27
2023-04-16T03:00:06.196Z,8.28
2023-04-16T03:02:32.826Z,8.28
2023-04-16T03:04:59.326Z,8.30
2023-04-16T03:07:26.061Z,8.29
2023-04-16T03:09:52.511Z,8.28
2023-04-16T03:12:18.988Z,8.28
2023-04-16T03:14:45.336Z,8.29
2023-04-16T03:17:12.078Z,8.30
2023-04-16T03:19:38.551Z,8.28
2023-04-16T03:22:04.973Z,8.28
2023-04-16T03:24:32.213Z,8.27
2023-04-16T03:26:58.922Z,8.29
2023-04-16T03:29:26.630Z,8.28
2023-04-16T03:31:53.194Z,8.26
2023-04-16T03:34:19.564Z,8.27
2023-04-16T03:36:45.891Z,8.29
2023-04-16T03:39:12.377Z,8.28
2023-04-16T03:41:38.730Z,8.25
2023-04-16T03:44:05.218Z,8.24
2023-04-16T03:46:31.624Z,8.26
2023-04-16T03:48:58.004Z,8.29
2023-04-16T03:51:24.801Z,8.29
2023-04-16T03:53:51.125Z,8.30
2023-04-16T03:56:17.775Z,8.27
2023-04-16T03:58:44.190Z,8.27
2023-04-16T04:01:10.612Z,8.25
2023-04-16T04:03:37.140Z,8.24
2023-04-16T04:06:09.926Z,8.24
2023-04-16T04:08:36.394Z,8.23
2023-04-16T04:11:02.819Z,8.22
2023-04-16T04:13:29.218Z,8.23
2023-04-16T04:15:55.707Z,8.23
2023-04-16T04:18:22.131Z,8.20
2023-04-16T04:20:48.637Z,8.23
2023-04-16T04:23:15.409Z,8.22
2023-04-16T04:25:41.792Z,8.24
2023-04-16T04:28:08.237Z,8.24
2023-04-16T04:30:35.836Z,8.22
2023-04-16T04:33:02.467Z,8.23
2023-04-16T04:35:29.077Z,8.22
2023-04-16T04:37:55.677Z,8.20
2023-04-16T04:40:22.176Z,8.19
2023-04-16T04:42:48.513Z,8.17
2023-04-16T04:45:15.191Z,8.17
2023-04-16T04:47:41.796Z,8.18
2023-04-16T04:50:08.573Z,8.16
2023-04-16T04:52:34.961Z,8.17
2023-04-16T04:55:01.613Z,8.17
2023-04-16T04:57:27.925Z,8.18
2023-04-16T04:59:54.255Z,8.16
2023-04-16T05:02:20.811Z,8.16
2023-04-16T05:04:47.368Z,8.15
2023-04-16T05:07:13.776Z,8.18
2023-04-16T05:09:40.489Z,8.17
2023-04-16T05:12:07.063Z,8.17
2023-04-16T05:14:33.544Z,8.16
2023-04-16T05:16:59.949Z,8.18
2023-04-16T05:19:26.435Z,8.18
2023-04-16T05:21:52.938Z,8.23
2023-04-16T05:24:20.008Z,8.25
2023-04-16T05:26:46.348Z,8.20
2023-04-16T05:29:12.689Z,8.24
2023-04-16T05:31:39.101Z,8.25
2023-04-16T05:34:05.464Z,8.25
2023-04-16T05:36:31.791Z,8.23
2023-04-16T05:38:58.183Z,8.26
2023-04-16T05:41:24.635Z,8.27
2023-04-16T05:43:51.062Z,8.31
2023-04-16T05:46:17.467Z,8.31
2023-04-16T05:48:43.939Z,8.34
2023-04-16T05:51:10.321Z,8.34
2023-04-16T05:53:36.758Z,8.35
2023-04-16T05:56:03.242Z,8.36
2023-04-16T05:58:29.596Z,8.37
2023-04-16T06:00:55.993Z,8.36
2023-04-16T06:03:22.525Z,8.35
2023-04-16T06:05:48.962Z,8.37
2023-04-16T06:08:15.395Z,8.36
2023-04-16T06:10:41.785Z,8.38
2023-04-16T06:13:08.242Z,8.38
2023-04-16T06:15:34.614Z,8.41
2023-04-16T06:18:01.193Z,8.40
2023-04-16T06:20:27.809Z,8.41
2023-04-16T06:22:55.467Z,8.45
2023-04-16T06:25:21.929Z,8.44
2023-04-16T06:27:48.327Z,8.47
2023-04-16T06:30:15.863Z,8.49
2023-04-16T06:32:43.163Z,8.47
2023-04-16T06:35:09.845Z,8.48
2023-04-16T06:37:36.180Z,8.47
2023-04-16T06:40:02.580Z,8.46
2023-04-16T06:42:29.634Z,8.47
2023-04-16T06:44:56.108Z,8.50
2023-04-16T06:47:22.549Z,8.50
2023-04-16T06:49:48.919Z,8.51
2023-04-16T06:52:15.328Z,8.53
2023-04-16T06:54:41.842Z,8.55
2023-04-16T06:57:08.219Z,8.58
2023-04-16T06:59:34.608Z,8.61
2023-04-16T07:02:01.341Z,8.66
2023-04-16T07:04:27.982Z,8.66
2023-04-16T07:06:54.368Z,8.66
2023-04-16T07:09:20.925Z,8.62
2023-04-16T07:11:47.372Z,8.62
2023-04-16T07:14:13.735Z,8.68
2023-04-16T07:16:40.587Z,8.69
2023-04-16T07:19:07.057Z,8.68
2023-04-16T07:21:33.445Z,8.72
2023-04-16T07:23:59.817Z,8.73
2023-04-16T07:26:26.618Z,8.78
2023-04-16T07:28:52.920Z,8.76
2023-04-16T07:31:19.311Z,8.79
2023-04-16T07:33:45.712Z,8.80
2023-04-16T07:36:12.365Z,8.80
2023-04-16T07:38:38.714Z,8.80
2023-04-16T07:41:05.399Z,8.82
2023-04-16T07:43:31.714Z,8.82
2023-04-16T07:45:58.098Z,8.83
2023-04-16T07:48:24.562Z,8.85
2023-04-16T07:50:50.876Z,8.85
2023-04-16T07:53:17.224Z,8.85
2023-04-16T07:55:43.674Z,8.86
2023-04-16T07:58:10.228Z,8.85
2023-04-16T08:00:36.663Z,8.87
2023-04-16T08:03:03.684Z,8.89
2023-04-16T08:05:30.433Z,8.94
2023-04-16T08:07:56.810Z,8.97
2023-04-16T08:10:23.256Z,9.03
2023-04-16T08:12:49.661Z,9.02
2023-04-16T08:15:16.009Z,9.00
2023-04-16T08:17:42.474Z,9.06
2023-04-16T08:20:09.852Z,9.08
2023-04-16T08:22:37.045Z,9.09
2023-04-16T08:25:04.165Z,9.13
2023-04-16T08:27:30.698Z,9.08
2023-04-16T08:29:57.120Z,9.06
2023-04-16T08:32:23.562Z,9.08
2023-04-16T08:34:50.067Z,9.09
2023-04-16T08:37:16.507Z,9.12
2023-04-16T08:39:42.892Z,9.17
2023-04-16T08:42:18.331Z,9.22
2023-04-16T08:44:49.582Z,9.25
2023-04-16T08:47:16.395Z,9.31
2023-04-16T08:49:46.169Z,9.30
2023-04-16T08:52:22.471Z,9.35
2023-04-16T08:55:03.651Z,9.38
2023-04-16T08:57:38.537Z,9.44
2023-04-16T09:00:07.569Z,9.52
2023-04-16T09:02:34.782Z,9.57
2023-04-16T09:05:06.511Z,9.60
2023-04-16T09:07:34.865Z,9.69
2023-04-16T09:10:04.148Z,9.70
2023-04-16T09:12:31.660Z,9.72
2023-04-16T09:15:01.177Z,9.79
2023-04-16T09:17:28.120Z,9.85
2023-04-16T09:19:54.999Z,9.88
2023-04-16T09:22:21.415Z,9.88
2023-04-16T09:24:47.843Z,9.86
2023-04-16T09:27:14.257Z,9.87
2023-04-16T09:29:41.441Z,9.92
2023-04-16T09:32:10.254Z,9.95
2023-04-16T09:34:57.755Z,9.99
2023-04-16T09:37:26.055Z,10.00
2023-04-16T09:39:55.418Z,10.06
2023-04-16T09:42:23.707Z,10.11
2023-04-16T09:44:50.188Z,10.12
2023-04-16T09:47:16.909Z,10.14
2023-04-16T09:49:43.697Z,10.21
2023-04-16T09:52:17.303Z,10.25
2023-04-16T09:54:51.128Z,10.25
2023-04-16T09:57:21.971Z,10.24
2023-04-16T09:59:57.726Z,10.21
2023-04-16T10:02:31.109Z,10.21
2023-04-16T10:04:57.850Z,10.28
2023-04-16T10:07:28.712Z,10.23
2023-04-16T10:09:55.943Z,10.25
2023-04-16T10:12:22.257Z,10.22
2023-04-16T10:14:50.303Z,10.24
2023-04-16T10:17:17.116Z,10.30
2023-04-16T10:19:43.718Z,10.35
2023-04-16T10:22:11.280Z,10.45
2023-04-16T10:24:38.674Z,10.43
2023-04-16T10:27:05.036Z,10.46
2023-04-16T10:29:32.854Z,10.45
2023-04-16T10:32:00.526Z,10.52
2023-04-16T10:34:27.575Z,10.54
2023-04-16T10:36:54.941Z,10.53
2023-04-16T10:39:23.471Z,10.38
2023-04-16T10:41:51.270Z,10.39
2023-04-16T10:44:19.602Z,10.40
2023-04-16T10:46:52.068Z,10.46
2023-04-16T10:49:25.852Z,10.55
2023-04-16T10:51:55.898Z,10.44
2023-04-16T10:54:30.114Z,10.43
2023-04-16T10:56:58.829Z,10.44
2023-04-16T10:59:29.946Z,10.50
2023-04-16T11:01:59.097Z,10.59
2023-04-16T11:04:25.560Z,10.63
2023-04-16T11:07:16.960Z,10.65
2023-04-16T11:09:47.698Z,10.61
2023-04-16T11:12:18.915Z,10.63
2023-04-16T11:14:50.501Z,10.67
2023-04-16T11:17:17.575Z,10.76
2023-04-16T11:19:44.413Z,10.79
2023-04-16T11:22:16.950Z,10.70
2023-04-16T11:24:47.608Z,10.65
2023-04-16T11:27:15.231Z,10.64
2023-04-16T11:29:42.265Z,10.62
2023-04-16T11:32:08.692Z,10.69
2023-04-16T11:34:35.147Z,10.72
2023-04-16T11:37:01.508Z,10.76
2023-04-16T11:39:27.864Z,10.68
2023-04-16T11:41:55.468Z,10.67
2023-04-16T11:44:24.149Z,10.72
2023-04-16T11:46:51.872Z,10.68
2023-04-16T11:49:27.230Z,10.78
2023-04-16T11:51:53.586Z,10.82
2023-04-16T11:54:21.060Z,10.94
2023-04-16T11:56:48.680Z,10.98
2023-04-16T11:59:17.380Z,10.95
2023-04-16T12:01:52.386Z,10.94
2023-04-16T12:04:20.818Z,11.02
2023-04-16T12:07:06.135Z,11.11
2023-04-16T12:09:32.719Z,11.05
2023-04-16T12:11:59.047Z,10.99
2023-04-16T12:14:25.437Z,10.94
2023-04-16T12:16:51.993Z,11.03
2023-04-16T12:19:18.765Z,11.09
2023-04-16T12:21:47.120Z,11.15
2023-04-16T12:24:16.214Z,11.22
2023-04-16T12:26:57.376Z,11.30
2023-04-16T12:29:26.262Z,11.26
2023-04-16T12:31:53.509Z,11.24
2023-04-16T12:34:21.543Z,11.24
2023-04-16T12:37:10.547Z,11.18
2023-04-16T12:39:36.928Z,11.15
2023-04-16T12:42:05.342Z,11.16
2023-04-16T12:44:31.837Z,11.15
2023-04-16T12:46:58.159Z,11.14
2023-04-16T12:49:24.531Z,11.07
2023-04-16T12:51:50.882Z,11.04
2023-04-16T12:54:17.283Z,11.04
2023-04-16T12:56:43.688Z,11.08
2023-04-16T13:01:37.199Z,11.06
2023-04-16T13:04:04.108Z,11.04
2023-04-16T13:06:33.647Z,11.11
2023-04-16T13:09:00.633Z,11.20
2023-04-16T13:11:27.398Z,11.25
2023-04-16T13:13:53.773Z,11.31
2023-04-16T13:16:20.219Z,11.41
2023-04-16T13:18:46.709Z,11.45
2023-04-16T13:21:13.177Z,11.48
2023-04-16T13:23:39.672Z,11.52
2023-04-16T13:26:06.191Z,11.57
2023-04-16T13:28:32.577Z,11.45
2023-04-16T13:30:59.485Z,11.48
2023-04-16T13:33:26.013Z,11.57
2023-04-16T13:35:52.419Z,11.64
2023-04-16T13:38:18.878Z,11.67
2023-04-16T13:40:45.363Z,11.59
2023-04-16T13:43:13.628Z,11.56
2023-04-16T13:45:40.269Z,11.48
2023-04-16T13:48:06.734Z,11.42
2023-04-16T13:50:33.218Z,11.52
2023-04-16T13:52:59.602Z,11.45
2023-04-16T13:55:26.134Z,11.45
2023-04-16T13:57:53.365Z,11.49
2023-04-16T14:00:20.382Z,11.50
2023-04-16T14:02:48.591Z,11.50
2023-04-16T14:05:15.532Z,11.60
2023-04-16T14:07:42.019Z,11.68
2023-04-16T14:10:08.931Z,11.70
2023-04-16T14:12:36.499Z,11.62
2023-04-16T14:15:04.419Z,11.66
2023-04-16T14:17:30.945Z,11.70
2023-04-16T14:19:57.328Z,11.65
2023-04-16T14:22:23.813Z,11.83
2023-04-16T14:24:50.243Z,11.95
2023-04-16T14:27:17.010Z,12.11
2023-04-16T14:29:44.337Z,12.15
2023-04-16T14:32:10.839Z,12.15
2023-04-16T14:34:37.289Z,12.15
2023-04-16T14:37:04.212Z,12.02
2023-04-16T14:39:31.018Z,11.92
2023-04-16T14:41:57.364Z,11.92
2023-04-16T14:44:23.924Z,11.89
2023-04-16T14:46:50.398Z,11.91
2023-04-16T14:49:17.065Z,11.92
2023-04-16T14:51:45.799Z,11.87
2023-04-16T14:54:12.189Z,11.88
2023-04-16T14:56:38.547Z,11.93
2023-04-16T14:59:04.889Z,11.98
2023-04-16T15:01:32.190Z,11.98
2023-04-16T15:04:01.440Z,12.00
2023-04-16T15:06:28.690Z,11.98
2023-04-16T15:08:55.200Z,11.96
2023-04-16T15:11:21.541Z,12.05
2023-04-16T15:13:47.898Z,12.15
2023-04-16T15:16:14.358Z,12.14
2023-04-16T15:18:40.885Z,12.29
2023-04-16T15:21:07.259Z,12.35
2023-04-16T15:23:33.659Z,12.37
2023-04-16T15:26:00.114Z,12.38
2023-04-16T15:28:27.079Z,12.29
2023-04-16T15:30:53.456Z,12.19
2023-04-16T15:33:22.979Z,12.11
2023-04-16T15:35:51.409Z,12.07
2023-04-16T15:38:18.731Z,12.13
2023-04-16T15:40:45.179Z,12.03
2023-04-16T15:43:11.597Z,11.89
2023-04-16T15:45:37.934Z,11.79
2023-04-16T15:48:05.652Z,11.77
2023-04-16T15:50:33.035Z,11.77
2023-04-16T15:52:59.420Z,11.81
2023-04-16T15:55:26.447Z,11.85
2023-04-16T15:57:52.811Z,11.75
2023-04-16T16:00:21.163Z,11.74
2023-04-16T16:02:47.812Z,11.74
2023-04-16T16:05:14.837Z,11.63
2023-04-16T16:07:41.841Z,11.69
2023-04-16T16:10:10.030Z,11.78
2023-04-16T16:12:37.295Z,11.75
2023-04-16T16:15:04.655Z,11.74
2023-04-16T16:17:31.088Z,11.68
2023-04-16T16:19:58.769Z,11.73
2023-04-16T16:22:25.653Z,11.75
2023-04-16T16:24:52.777Z,11.69
2023-04-16T16:27:19.798Z,11.57
2023-04-16T16:29:46.445Z,11.46
2023-04-16T16:32:13.355Z,11.34
2023-04-16T16:34:39.686Z,11.32
2023-04-16T16:37:06.336Z,11.31
2023-04-16T16:39:33.137Z,11.24
2023-04-16T16:41:59.943Z,11.18
2023-04-16T16:44:27.072Z,11.22
2023-04-16T16:46:53.964Z,11.27
2023-04-16T16:49:20.420Z,11.27
2023-04-16T16:51:47.448Z,11.27
2023-04-16T16:54:14.333Z,11.25
2023-04-16T16:56:40.890Z,11.12
2023-04-16T16:59:08.895Z,11.06
2023-04-16T17:01:35.806Z,11.03
2023-04-16T17:04:02.526Z,11.02
2023-04-16T17:06:29.000Z,10.99
2023-04-16T17:08:55.821Z,11.00
2023-04-16T17:11:22.218Z,11.01
2023-04-16T17:13:48.586Z,10.99
2023-04-16T17:16:16.651Z,10.89
2023-04-16T17:18:43.182Z,10.82
2023-04-16T17:21:09.583Z,10.73
2023-04-16T17:23:36.096Z,10.68
2023-04-16T17:26:02.521Z,10.68
2023-04-16T17:28:28.922Z,10.70
2023-04-16T17:30:56.773Z,10.61
2023-04-16T17:33:23.280Z,10.52
2023-04-16T17:35:49.660Z,10.45
2023-04-16T17:38:16.053Z,10.43
2023-04-16T17:40:42.494Z,10.43
2023-04-16T17:43:08.972Z,10.39
2023-04-16T17:45:35.387Z,10.34
2023-04-16T17:48:01.866Z,10.34
2023-04-16T17:50:28.343Z,10.34
2023-04-16T17:52:54.752Z,10.30
2023-04-16T17:55:21.242Z,10.26
2023-04-16T17:57:47.637Z,10.24
2023-04-16T18:00:14.433Z,10.17
2023-04-16T18:02:41.424Z,10.10
2023-04-16T18:05:08.731Z,10.04
2023-04-16T18:07:36.334Z,9.93
2023-04-16T18:10:02.874Z,9.91
2023-04-16T18:12:29.252Z,9.90
2023-04-16T18:14:55.738Z,9.85
2023-04-16T18:17:22.791Z,9.76
2023-04-16T18:19:49.278Z,9.69
2023-04-16T18:22:15.760Z,9.64
2023-04-16T18:24:42.085Z,9.61
2023-04-16T18:27:08.547Z,9.56
2023-04-16T18:29:35.372Z,9.56
2023-04-16T18:32:04.156Z,9.54
2023-04-16T18:34:31.636Z,9.53
2023-04-16T18:36:58.120Z,9.46
2023-04-16T18:39:24.516Z,9.42
2023-04-16T18:41:50.841Z,9.47
2023-04-16T18:44:17.703Z,9.47
2023-04-16T18:46:44.149Z,9.46
2023-04-16T18:49:10.836Z,9.43
2023-04-16T18:51:37.346Z,9.37
2023-04-16T18:54:03.909Z,9.35
2023-04-16T18:56:31.078Z,9.34
2023-04-16T18:58:57.476Z,9.40
2023-04-16T19:01:23.919Z,9.45
2023-04-16T19:03:50.500Z,9.44
2023-04-16T19:06:17.168Z,9.43
2023-04-16T19:08:43.584Z,9.37
2023-04-16T19:11:09.896Z,9.34
2023-04-16T19:13:38.039Z,9.32
2023-04-16T19:16:11.155Z,9.32
2023-04-16T19:18:38.853Z,9.30
2023-04-16T19:21:06.860Z,9.26
2023-04-16T19:23:33.182Z,9.21
2023-04-16T19:26:01.215Z,9.22
2023-04-16T19:28:28.269Z,9.22
2023-04-16T19:30:54.756Z,9.17
2023-04-16T19:33:21.235Z,9.17
2023-04-16T19:35:47.608Z,9.15
2023-04-16T19:38:14.052Z,9.13
2023-04-16T19:40:41.010Z,9.12
2023-04-16T19:43:07.530Z,9.14
2023-04-16T19:45:33.991Z,9.11
2023-04-16T19:48:00.548Z,9.05
2023-04-16T19:50:26.978Z,8.95
2023-04-16T19:52:53.378Z,8.96
2023-04-16T19:55:19.945Z,8.97
2023-04-16T19:57:47.814Z,9.03
2023-04-16T20:00:14.633Z,9.04
2023-04-16T20:02:41.247Z,9.05
2023-04-16T20:05:08.224Z,9.07
2023-04-16T20:07:34.674Z,9.08
2023-04-16T20:10:02.564Z,9.05
2023-04-16T20:12:28.932Z,9.05
2023-04-16T20:14:55.303Z,9.08
2023-04-16T20:17:21.668Z,9.08
2023-04-16T20:19:49.523Z,9.04
2023-04-16T20:22:18.214Z,9.04
2023-04-16T20:24:47.953Z,9.05
2023-04-16T20:27:14.992Z,9.07
2023-04-16T20:29:41.792Z,8.99
2023-04-16T20:32:08.218Z,9.01
2023-04-16T20:34:34.570Z,9.06
2023-04-16T20:37:00.913Z,8.98
2023-04-16T20:39:27.358Z,8.95
2023-04-16T20:41:56.658Z,8.93
2023-04-16T20:44:26.315Z,8.86
2023-04-16T20:46:54.973Z,8.84
2023-04-16T20:49:21.453Z,8.82
2023-04-16T20:51:47.901Z,8.81
2023-04-16T20:54:14.320Z,8.80
2023-04-16T20:56:40.808Z,8.76
2023-04-16T20:59:07.148Z,8.77
2023-04-16T21:01:33.544Z,8.80
2023-04-16T21:04:00.178Z,8.81
2023-04-16T21:06:27.506Z,8.84
2023-04-16T21:08:53.877Z,8.83
2023-04-16T21:11:20.718Z,8.81
2023-04-16T21:13:47.146Z,8.79
2023-04-16T21:16:13.496Z,8.74
2023-04-16T21:18:39.899Z,8.76
2023-04-16T21:21:06.592Z,8.74
2023-04-16T21:23:32.916Z,8.71
2023-04-16T21:25:59.277Z,8.65
2023-04-16T21:28:25.779Z,8.61
2023-04-16T21:30:52.863Z,8.58
2023-04-16T21:33:19.342Z,8.54
2023-04-16T21:35:51.271Z,8.58
2023-04-16T21:38:17.620Z,8.58
2023-04-16T21:40:45.896Z,8.61
2023-04-16T21:43:12.236Z,8.58
2023-04-16T21:45:38.649Z,8.56
2023-04-16T21:48:05.383Z,8.55
2023-04-16T21:50:31.742Z,8.57
2023-04-16T21:52:58.108Z,8.59
2023-04-16T21:55:24.442Z,8.60
2023-04-16T21:57:50.845Z,8.64
2023-04-16T22:00:18.237Z,8.65
2023-04-16T22:02:44.835Z,8.62
2023-04-16T22:05:11.513Z,8.59
2023-04-16T22:07:38.360Z,8.57
2023-04-16T22:10:05.093Z,8.54
2023-04-16T22:12:31.601Z,8.57
2023-04-16T22:15:02.838Z,8.59
2023-04-16T22:17:30.137Z,8.58
2023-04-16T22:20:00.271Z,8.59
2023-04-16T22:22:26.596Z,8.59
2023-04-16T22:24:53.372Z,8.57
2023-04-16T22:27:19.793Z,8.53
2023-04-16T22:29:46.164Z,8.47
2023-04-16T22:32:12.596Z,8.43
2023-04-16T22:34:40.159Z,8.39
2023-04-16T22:37:07.926Z,8.38
2023-04-16T22:39:34.724Z,8.36
2023-04-16T22:42:02.381Z,8.31
2023-04-16T22:44:28.725Z,8.26
2023-04-16T22:46:55.117Z,8.27
2023-04-16T22:49:21.549Z,8.27
2023-04-16T22:51:47.941Z,8.31
2023-04-16T22:54:14.375Z,8.32
2023-04-16T22:56:41.034Z,8.35
2023-04-16T22:59:07.966Z,8.29
2023-04-16T23:01:34.815Z,8.29
2023-04-16T23:04:01.311Z,8.29
2023-04-16T23:06:27.770Z,8.31
2023-04-16T23:08:54.199Z,8.31
2023-04-16T23:11:20.833Z,8.34
2023-04-16T23:13:47.236Z,8.34
2023-04-16T23:16:13.735Z,8.29
2023-04-16T23:18:40.189Z,8.29
2023-04-16T23:21:06.572Z,8.29
2023-04-16T23:23:33.009Z,8.30
2023-04-16T23:26:00.885Z,8.32
2023-04-16T23:28:27.268Z,8.30
2023-04-16T23:30:53.768Z,8.28
2023-04-16T23:33:20.212Z,8.26
2023-04-16T23:35:47.397Z,8.25
2023-04-16T23:38:13.789Z,8.24
2023-04-16T23:40:40.320Z,8.22
2023-04-16T23:43:06.679Z,8.24
2023-04-16T23:45:33.179Z,8.24
2023-04-16T23:47:59.560Z,8.23
2023-04-16T23:50:26.135Z,8.22
2023-04-16T23:52:52.513Z,8.23
2023-04-16T23:55:18.995Z,8.19
2023-04-16T23:57:45.488Z,8.19
